SDM2212 UTAA-UDYZ
Flight info
| Callsign | SDM2212 |
|---|---|
| Flight time | 1h 42m |
| Altitude | 36000 |
| Route | MAM29D MAMED B449 DUKAN N449 DEKIT DCT GOSIS |
| Aircraft | B77W/H-SDE1E2E3FGHIJ2J3J4J5M1RWXY/LB1D1 |
Departure
| Time | 2026-04-25 14:12 |
|---|---|
| Airport | Ashgabat International Airport (UTAA) |
Arrival
| Time | 2026-04-25 15:54 |
|---|---|
| Airport | Zvartnots International Airport (UDYZ) |
| Time | Latitude | Longitude | Altitude | Speed | Heading |
|---|---|---|---|---|---|
| 2026-04-25 13:55 | 37.98263 | 58.36812 | 683 ft | 0 kts | 30° |
| 2026-04-25 14:03 | 37.98244 | 58.36797 | 683 ft | 3 kts | 42° |
| 2026-04-25 14:03 | 37.98230 | 58.36778 | 681 ft | 3 kts | 55° |
| 2026-04-25 14:03 | 37.98220 | 58.36756 | 683 ft | 3 kts | 68° |
| 2026-04-25 14:03 | 37.98214 | 58.36732 | 679 ft | 3 kts | 79° |
| 2026-04-25 14:04 | 37.98211 | 58.36707 | 680 ft | 3 kts | 90° |
| 2026-04-25 14:04 | 37.98212 | 58.36682 | 677 ft | 3 kts | 101° |
| 2026-04-25 14:04 | 37.98217 | 58.36658 | 682 ft | 2 kts | 114° |
| 2026-04-25 14:04 | 37.98219 | 58.36651 | 681 ft | 0 kts | 117° |
| 2026-04-25 14:06 | 37.98210 | 58.36674 | 682 ft | 6 kts | 117° |
| 2026-04-25 14:06 | 37.98177 | 58.36750 | 682 ft | 12 kts | 120° |
| 2026-04-25 14:06 | 37.98137 | 58.36838 | 678 ft | 12 kts | 119° |
| 2026-04-25 14:06 | 37.98132 | 58.36850 | 682 ft | 0 kts | 119° |
| 2026-04-25 14:07 | 37.98127 | 58.36860 | 679 ft | 8 kts | 119° |
| 2026-04-25 14:07 | 37.98082 | 58.36962 | 677 ft | 14 kts | 120° |
| 2026-04-25 14:08 | 37.98020 | 58.37061 | 681 ft | 14 kts | 148° |
| 2026-04-25 14:08 | 37.97927 | 58.37101 | 678 ft | 14 kts | 164° |
| 2026-04-25 14:08 | 37.97831 | 58.37136 | 677 ft | 14 kts | 163° |
| 2026-04-25 14:08 | 37.97742 | 58.37189 | 678 ft | 14 kts | 136° |
| 2026-04-25 14:09 | 37.97687 | 58.37295 | 680 ft | 14 kts | 120° |
| 2026-04-25 14:09 | 37.97638 | 58.37404 | 679 ft | 14 kts | 120° |
| 2026-04-25 14:09 | 37.97572 | 58.37492 | 679 ft | 14 kts | 167° |
| 2026-04-25 14:09 | 37.97540 | 58.37488 | 676 ft | 14 kts | 196° |
| 2026-04-25 14:10 | 37.97395 | 58.37388 | 676 ft | 11 kts | 210° |
| 2026-04-25 14:10 | 37.97346 | 58.37330 | 682 ft | 10 kts | 252° |
| 2026-04-25 14:10 | 37.97363 | 58.37247 | 679 ft | 3 kts | 298° |
| 2026-04-25 14:11 | 37.97374 | 58.37221 | 680 ft | 15 kts | 298° |
| 2026-04-25 14:11 | 37.97530 | 58.36872 | 677 ft | 90 kts | 299° |
| 2026-04-25 14:11 | 37.97987 | 58.35848 | 681 ft | 173 kts | 299° |
| 2026-04-25 14:11 | 37.98643 | 58.34380 | 1266 ft | 184 kts | 299° |
| 2026-04-25 14:12 | 37.99243 | 58.32969 | 2409 ft | 184 kts | 297° |
| 2026-04-25 14:12 | 37.99887 | 58.31475 | 2825 ft | 207 kts | 300° |
| 2026-04-25 14:12 | 38.00646 | 58.29778 | 3033 ft | 235 kts | 300° |
| 2026-04-25 14:12 | 38.01476 | 58.27912 | 3444 ft | 253 kts | 300° |
| 2026-04-25 14:13 | 38.02407 | 58.25954 | 4057 ft | 264 kts | 305° |
| 2026-04-25 14:13 | 38.03508 | 58.24047 | 4825 ft | 271 kts | 310° |
| 2026-04-25 14:13 | 38.04769 | 58.22202 | 5639 ft | 275 kts | 314° |
| 2026-04-25 14:13 | 38.06121 | 58.20516 | 6532 ft | 276 kts | 318° |
| 2026-04-25 14:14 | 38.07591 | 58.18922 | 7376 ft | 279 kts | 322° |
| 2026-04-25 14:14 | 38.09147 | 58.17398 | 8164 ft | 284 kts | 323° |
| 2026-04-25 14:14 | 38.10738 | 58.15878 | 8976 ft | 287 kts | 323° |
| 2026-04-25 14:14 | 38.12345 | 58.14346 | 9784 ft | 290 kts | 323° |
| 2026-04-25 14:15 | 38.13973 | 58.12791 | 10530 ft | 296 kts | 322° |
| 2026-04-25 14:15 | 38.14510 | 58.12278 | 10665 ft | 302 kts | 322° |
| 2026-04-25 14:15 | 38.17534 | 58.09377 | 11002 ft | 347 kts | 321° |
| 2026-04-25 14:15 | 38.19529 | 58.07455 | 11184 ft | 372 kts | 320° |
| 2026-04-25 14:16 | 38.21604 | 58.05454 | 11759 ft | 384 kts | 320° |
| 2026-04-25 14:16 | 38.23757 | 58.03377 | 12508 ft | 391 kts | 319° |
| 2026-04-25 14:16 | 38.25939 | 58.01272 | 13473 ft | 392 kts | 319° |
| 2026-04-25 14:16 | 38.28118 | 57.99168 | 14408 ft | 395 kts | 319° |
| 2026-04-25 14:17 | 38.30320 | 57.97038 | 15250 ft | 400 kts | 320° |
| 2026-04-25 14:17 | 38.32545 | 57.94885 | 16121 ft | 403 kts | 320° |
| 2026-04-25 14:17 | 38.34785 | 57.92717 | 16971 ft | 406 kts | 320° |
| 2026-04-25 14:17 | 38.36278 | 57.91270 | 17536 ft | 408 kts | 320° |
| 2026-04-25 14:18 | 38.39315 | 57.88323 | 18641 ft | 412 kts | 320° |
| 2026-04-25 14:18 | 38.40835 | 57.86847 | 19113 ft | 416 kts | 320° |
| 2026-04-25 14:18 | 38.43912 | 57.83855 | 20001 ft | 424 kts | 319° |
| 2026-04-25 14:18 | 38.45498 | 57.82310 | 20473 ft | 426 kts | 319° |
| 2026-04-25 14:19 | 38.48653 | 57.79239 | 21358 ft | 432 kts | 319° |
| 2026-04-25 14:19 | 38.50242 | 57.77691 | 21772 ft | 435 kts | 319° |
| 2026-04-25 14:19 | 38.52661 | 57.75333 | 22412 ft | 439 kts | 319° |
| 2026-04-25 14:19 | 38.55104 | 57.72949 | 23005 ft | 443 kts | 319° |
| 2026-04-25 14:20 | 38.57561 | 57.70549 | 23589 ft | 446 kts | 319° |
| 2026-04-25 14:20 | 38.59200 | 57.68946 | 23926 ft | 449 kts | 318° |
| 2026-04-25 14:20 | 38.62078 | 57.65145 | 24432 ft | 446 kts | 298° |
| 2026-04-25 14:20 | 38.63345 | 57.61576 | 24991 ft | 437 kts | 285° |
| 2026-04-25 14:21 | 38.64320 | 57.57874 | 25450 ft | 443 kts | 285° |
| 2026-04-25 14:21 | 38.65341 | 57.54137 | 25998 ft | 445 kts | 286° |
| 2026-04-25 14:21 | 38.66388 | 57.50395 | 26567 ft | 447 kts | 286° |
| 2026-04-25 14:21 | 38.67450 | 57.46638 | 27090 ft | 450 kts | 286° |
| 2026-04-25 14:22 | 38.68508 | 57.42915 | 27562 ft | 453 kts | 286° |
| 2026-04-25 14:22 | 38.69589 | 57.39117 | 27996 ft | 456 kts | 286° |
| 2026-04-25 14:22 | 38.70676 | 57.35293 | 28450 ft | 458 kts | 286° |
| 2026-04-25 14:22 | 38.71769 | 57.31450 | 28915 ft | 459 kts | 286° |
| 2026-04-25 14:23 | 38.72862 | 57.27595 | 29308 ft | 461 kts | 285° |
| 2026-04-25 14:23 | 38.73959 | 57.23721 | 29662 ft | 464 kts | 285° |
| 2026-04-25 14:23 | 38.75058 | 57.19832 | 30046 ft | 465 kts | 285° |
| 2026-04-25 14:23 | 38.76156 | 57.15940 | 30518 ft | 463 kts | 285° |
| 2026-04-25 14:24 | 38.77240 | 57.12094 | 31229 ft | 455 kts | 285° |
| 2026-04-25 14:24 | 38.78311 | 57.08295 | 31896 ft | 449 kts | 285° |
| 2026-04-25 14:24 | 38.79366 | 57.04544 | 32460 ft | 445 kts | 285° |
| 2026-04-25 14:24 | 38.80408 | 57.00825 | 32957 ft | 442 kts | 284° |
| 2026-04-25 14:25 | 38.81428 | 56.97176 | 33422 ft | 439 kts | 284° |
| 2026-04-25 14:25 | 38.82453 | 56.93516 | 33864 ft | 435 kts | 284° |
| 2026-04-25 14:25 | 38.83472 | 56.89864 | 34277 ft | 433 kts | 284° |
| 2026-04-25 14:25 | 38.84154 | 56.87418 | 34550 ft | 431 kts | 284° |
| 2026-04-25 14:26 | 38.85484 | 56.82629 | 35046 ft | 428 kts | 284° |
| 2026-04-25 14:26 | 38.86487 | 56.79020 | 35369 ft | 427 kts | 284° |
| 2026-04-25 14:26 | 38.87481 | 56.75440 | 35696 ft | 425 kts | 283° |
| 2026-04-25 14:26 | 38.88462 | 56.71903 | 35970 ft | 425 kts | 283° |
| 2026-04-25 14:27 | 38.89455 | 56.68305 | 36009 ft | 429 kts | 283° |
| 2026-04-25 14:27 | 38.91455 | 56.61057 | 36053 ft | 433 kts | 283° |
| 2026-04-25 14:28 | 38.93478 | 56.53706 | 36072 ft | 438 kts | 283° |
| 2026-04-25 14:28 | 38.95512 | 56.46310 | 36069 ft | 440 kts | 283° |
| 2026-04-25 14:29 | 38.97538 | 56.38915 | 36066 ft | 442 kts | 283° |
| 2026-04-25 14:29 | 38.99581 | 56.31443 | 36068 ft | 442 kts | 283° |
| 2026-04-25 14:30 | 39.01472 | 56.23955 | 36066 ft | 438 kts | 281° |
| 2026-04-25 14:30 | 39.03970 | 56.12699 | 36061 ft | 435 kts | 280° |
| 2026-04-25 14:31 | 39.05651 | 56.05223 | 36062 ft | 434 kts | 280° |
| 2026-04-25 14:31 | 39.07334 | 55.97801 | 36061 ft | 433 kts | 280° |
| 2026-04-25 14:32 | 39.09022 | 55.90353 | 36061 ft | 433 kts | 280° |
| 2026-04-25 14:32 | 39.10711 | 55.82877 | 36066 ft | 434 kts | 280° |
| 2026-04-25 14:33 | 39.12382 | 55.75453 | 36070 ft | 435 kts | 280° |
| 2026-04-25 14:33 | 39.14066 | 55.67942 | 36069 ft | 437 kts | 280° |
| 2026-04-25 14:34 | 39.15752 | 55.60408 | 36070 ft | 439 kts | 280° |
| 2026-04-25 14:34 | 39.17438 | 55.52843 | 36069 ft | 439 kts | 280° |
| 2026-04-25 14:35 | 39.19118 | 55.45279 | 36075 ft | 439 kts | 280° |
| 2026-04-25 14:35 | 39.20795 | 55.37704 | 36076 ft | 439 kts | 280° |
| 2026-04-25 14:36 | 39.22469 | 55.30131 | 36086 ft | 439 kts | 280° |
| 2026-04-25 14:36 | 39.24125 | 55.22597 | 36080 ft | 439 kts | 280° |
| 2026-04-25 14:37 | 39.25784 | 55.15019 | 36084 ft | 438 kts | 279° |
| 2026-04-25 14:37 | 39.27434 | 55.07461 | 36081 ft | 438 kts | 279° |
| 2026-04-25 14:38 | 39.29085 | 54.99883 | 36083 ft | 438 kts | 279° |
| 2026-04-25 14:38 | 39.30730 | 54.92305 | 36084 ft | 438 kts | 279° |
| 2026-04-25 14:39 | 39.32358 | 54.84782 | 36085 ft | 437 kts | 279° |
| 2026-04-25 14:39 | 39.33988 | 54.77218 | 36086 ft | 437 kts | 279° |
| 2026-04-25 14:40 | 39.35614 | 54.69633 | 36095 ft | 438 kts | 279° |
| 2026-04-25 14:40 | 39.37240 | 54.62032 | 36091 ft | 439 kts | 279° |
| 2026-04-25 14:41 | 39.38862 | 54.54419 | 36094 ft | 439 kts | 279° |
| 2026-04-25 14:41 | 39.40480 | 54.46807 | 36093 ft | 439 kts | 279° |
| 2026-04-25 14:42 | 39.41823 | 54.40466 | 36090 ft | 439 kts | 279° |
| 2026-04-25 14:42 | 39.43695 | 54.31598 | 36094 ft | 439 kts | 279° |
| 2026-04-25 14:43 | 39.45357 | 54.23984 | 36078 ft | 442 kts | 279° |
| 2026-04-25 14:43 | 39.46953 | 54.16297 | 36086 ft | 440 kts | 278° |
| 2026-04-25 14:44 | 39.48487 | 54.08697 | 36093 ft | 438 kts | 279° |
| 2026-04-25 14:44 | 39.50072 | 54.01089 | 36093 ft | 437 kts | 279° |
| 2026-04-25 14:45 | 39.51630 | 53.93491 | 36092 ft | 437 kts | 278° |
| 2026-04-25 14:45 | 39.53183 | 53.85863 | 36092 ft | 438 kts | 278° |
| 2026-04-25 14:46 | 39.54734 | 53.78221 | 36093 ft | 439 kts | 278° |
| 2026-04-25 14:46 | 39.56286 | 53.70561 | 36100 ft | 439 kts | 278° |
| 2026-04-25 14:47 | 39.57574 | 53.64196 | 36103 ft | 439 kts | 278° |
| 2026-04-25 14:47 | 39.59366 | 53.55277 | 36100 ft | 440 kts | 278° |
| 2026-04-25 14:48 | 39.60905 | 53.47580 | 36111 ft | 441 kts | 278° |
| 2026-04-25 14:48 | 39.62444 | 53.39866 | 36106 ft | 441 kts | 278° |
| 2026-04-25 14:49 | 39.63983 | 53.32138 | 36103 ft | 442 kts | 278° |
| 2026-04-25 14:49 | 39.65501 | 53.24457 | 36100 ft | 442 kts | 278° |
| 2026-04-25 14:50 | 39.67026 | 53.16735 | 36102 ft | 442 kts | 278° |
| 2026-04-25 14:50 | 39.68551 | 53.08994 | 36104 ft | 442 kts | 278° |
| 2026-04-25 14:51 | 39.70067 | 53.01253 | 36102 ft | 442 kts | 278° |
| 2026-04-25 14:51 | 39.71574 | 52.93517 | 36100 ft | 441 kts | 278° |
| 2026-04-25 14:52 | 39.73069 | 52.85837 | 36105 ft | 441 kts | 278° |
| 2026-04-25 14:52 | 39.74335 | 52.79348 | 36101 ft | 442 kts | 278° |
| 2026-04-25 14:53 | 39.76117 | 52.70348 | 36101 ft | 443 kts | 278° |
| 2026-04-25 14:53 | 39.77652 | 52.62588 | 36109 ft | 443 kts | 278° |
| 2026-04-25 14:54 | 39.79176 | 52.54831 | 36113 ft | 443 kts | 277° |
| 2026-04-25 14:54 | 39.80685 | 52.47119 | 36112 ft | 442 kts | 277° |
| 2026-04-25 14:55 | 39.82198 | 52.39348 | 36112 ft | 442 kts | 277° |
| 2026-04-25 14:55 | 39.83703 | 52.31589 | 36107 ft | 442 kts | 277° |
| 2026-04-25 14:56 | 39.85202 | 52.23838 | 36114 ft | 442 kts | 277° |
| 2026-04-25 14:56 | 39.86697 | 52.16074 | 36112 ft | 442 kts | 277° |
| 2026-04-25 14:57 | 39.88184 | 52.08320 | 36109 ft | 441 kts | 277° |
| 2026-04-25 14:57 | 39.89665 | 52.00569 | 36120 ft | 441 kts | 277° |
| 2026-04-25 14:58 | 39.91131 | 51.92864 | 36124 ft | 441 kts | 277° |
| 2026-04-25 14:58 | 39.92602 | 51.85100 | 36116 ft | 441 kts | 277° |
| 2026-04-25 14:59 | 39.94070 | 51.77325 | 36122 ft | 442 kts | 277° |
| 2026-04-25 14:59 | 39.95533 | 51.69545 | 36133 ft | 442 kts | 277° |
| 2026-04-25 15:00 | 39.96981 | 51.61810 | 36134 ft | 441 kts | 277° |
| 2026-04-25 15:00 | 39.98433 | 51.54032 | 36145 ft | 441 kts | 277° |
| 2026-04-25 15:01 | 39.99643 | 51.46232 | 36130 ft | 436 kts | 272° |
| 2026-04-25 15:01 | 40.00448 | 51.38529 | 36156 ft | 435 kts | 272° |
| 2026-04-25 15:02 | 40.01247 | 51.30871 | 36146 ft | 434 kts | 272° |
| 2026-04-25 15:02 | 40.02059 | 51.23136 | 36143 ft | 431 kts | 272° |
| 2026-04-25 15:03 | 40.02872 | 51.15401 | 36155 ft | 429 kts | 272° |
| 2026-04-25 15:03 | 40.03677 | 51.07701 | 36156 ft | 428 kts | 272° |
| 2026-04-25 15:04 | 40.04342 | 51.01309 | 36156 ft | 427 kts | 272° |
| 2026-04-25 15:04 | 40.05136 | 50.93630 | 36166 ft | 426 kts | 272° |
| 2026-04-25 15:05 | 40.05922 | 50.85959 | 36165 ft | 426 kts | 272° |
| 2026-04-25 15:06 | 40.07087 | 50.74514 | 36167 ft | 425 kts | 272° |
| 2026-04-25 15:06 | 40.07859 | 50.66861 | 36174 ft | 425 kts | 272° |
| 2026-04-25 15:07 | 40.08628 | 50.59192 | 36171 ft | 425 kts | 272° |
| 2026-04-25 15:07 | 40.09389 | 50.51537 | 36178 ft | 425 kts | 272° |
| 2026-04-25 15:08 | 40.10147 | 50.43868 | 36177 ft | 425 kts | 272° |
| 2026-04-25 15:08 | 40.10898 | 50.36241 | 36173 ft | 426 kts | 272° |
| 2026-04-25 15:09 | 40.11647 | 50.28553 | 36172 ft | 425 kts | 272° |
| 2026-04-25 15:09 | 40.12760 | 50.17046 | 36184 ft | 426 kts | 272° |
| 2026-04-25 15:10 | 40.13497 | 50.09356 | 36186 ft | 427 kts | 272° |
| 2026-04-25 15:11 | 40.14594 | 49.97799 | 36177 ft | 427 kts | 272° |
| 2026-04-25 15:11 | 40.15320 | 49.90082 | 36178 ft | 428 kts | 272° |
| 2026-04-25 15:12 | 40.16396 | 49.78556 | 36176 ft | 427 kts | 272° |
| 2026-04-25 15:12 | 40.16998 | 49.72097 | 36175 ft | 426 kts | 272° |
| 2026-04-25 15:13 | 40.18164 | 49.59317 | 36178 ft | 425 kts | 272° |
| 2026-04-25 15:14 | 40.18829 | 49.51641 | 36170 ft | 424 kts | 271° |
| 2026-04-25 15:14 | 40.18896 | 49.43938 | 36177 ft | 424 kts | 266° |
| 2026-04-25 15:15 | 40.18845 | 49.36196 | 36176 ft | 427 kts | 267° |
| 2026-04-25 15:15 | 40.18811 | 49.28457 | 36167 ft | 429 kts | 267° |
| 2026-04-25 15:16 | 40.18785 | 49.20619 | 36156 ft | 431 kts | 267° |
| 2026-04-25 15:16 | 40.18771 | 49.08834 | 36137 ft | 432 kts | 268° |
| 2026-04-25 15:17 | 40.18740 | 48.97035 | 36121 ft | 432 kts | 268° |
| 2026-04-25 15:18 | 40.18715 | 48.89187 | 36115 ft | 431 kts | 268° |
| 2026-04-25 15:18 | 40.18653 | 48.77464 | 36109 ft | 431 kts | 268° |
| 2026-04-25 15:19 | 40.18606 | 48.70906 | 36106 ft | 430 kts | 268° |
| 2026-04-25 15:19 | 40.18537 | 48.61814 | 36107 ft | 430 kts | 268° |
| 2026-04-25 15:20 | 40.18473 | 48.53990 | 36102 ft | 430 kts | 267° |
| 2026-04-25 15:20 | 40.18404 | 48.46160 | 36102 ft | 430 kts | 267° |
| 2026-04-25 15:21 | 40.18330 | 48.38324 | 36094 ft | 432 kts | 267° |
| 2026-04-25 15:21 | 40.18251 | 48.30457 | 36093 ft | 432 kts | 267° |
| 2026-04-25 15:22 | 40.18166 | 48.22633 | 36093 ft | 433 kts | 267° |
| 2026-04-25 15:22 | 40.18075 | 48.14762 | 36085 ft | 433 kts | 267° |
| 2026-04-25 15:23 | 40.17979 | 48.06864 | 36083 ft | 434 kts | 267° |
| 2026-04-25 15:23 | 40.17877 | 47.98966 | 36084 ft | 434 kts | 267° |
| 2026-04-25 15:24 | 40.17770 | 47.91073 | 36083 ft | 434 kts | 267° |
| 2026-04-25 15:24 | 40.17678 | 47.84511 | 36083 ft | 434 kts | 267° |
| 2026-04-25 15:25 | 40.17542 | 47.75335 | 36093 ft | 434 kts | 267° |
| 2026-04-25 15:25 | 40.17419 | 47.67451 | 36091 ft | 434 kts | 267° |
| 2026-04-25 15:26 | 40.17291 | 47.59564 | 36083 ft | 434 kts | 267° |
| 2026-04-25 15:26 | 40.17158 | 47.51681 | 36083 ft | 434 kts | 267° |
| 2026-04-25 15:27 | 40.17019 | 47.43794 | 36083 ft | 434 kts | 267° |
| 2026-04-25 15:28 | 40.16800 | 47.32019 | 36084 ft | 433 kts | 267° |
| 2026-04-25 15:28 | 40.16646 | 47.24137 | 36086 ft | 434 kts | 267° |
| 2026-04-25 15:29 | 40.16488 | 47.16253 | 36094 ft | 434 kts | 266° |
| 2026-04-25 15:29 | 40.16325 | 47.08349 | 36103 ft | 434 kts | 267° |
| 2026-04-25 15:30 | 40.16156 | 47.00440 | 36111 ft | 435 kts | 266° |
| 2026-04-25 15:30 | 40.15979 | 46.92522 | 36115 ft | 436 kts | 266° |
| 2026-04-25 15:31 | 40.15799 | 46.84641 | 36111 ft | 436 kts | 266° |
| 2026-04-25 15:31 | 40.15613 | 46.76707 | 36105 ft | 437 kts | 266° |
| 2026-04-25 15:32 | 40.15430 | 46.69009 | 36084 ft | 417 kts | 266° |
| 2026-04-25 15:32 | 40.15340 | 46.65273 | 36057 ft | 404 kts | 266° |
| 2026-04-25 15:32 | 40.15249 | 46.61613 | 35469 ft | 402 kts | 266° |
| 2026-04-25 15:33 | 40.15060 | 46.54300 | 34106 ft | 406 kts | 266° |
| 2026-04-25 15:33 | 40.14962 | 46.50573 | 33316 ft | 415 kts | 266° |
| 2026-04-25 15:33 | 40.14860 | 46.46759 | 32471 ft | 425 kts | 266° |
| 2026-04-25 15:33 | 40.14758 | 46.42924 | 31763 ft | 427 kts | 266° |
| 2026-04-25 15:34 | 40.14655 | 46.39064 | 31117 ft | 423 kts | 266° |
| 2026-04-25 15:34 | 40.14551 | 46.35237 | 30486 ft | 420 kts | 266° |
| 2026-04-25 15:34 | 40.14445 | 46.31394 | 29854 ft | 416 kts | 266° |
| 2026-04-25 15:34 | 40.14411 | 46.30166 | 29656 ft | 415 kts | 266° |
| 2026-04-25 15:35 | 40.14133 | 46.20254 | 28035 ft | 406 kts | 266° |
| 2026-04-25 15:35 | 40.14027 | 46.16585 | 27445 ft | 402 kts | 267° |
| 2026-04-25 15:35 | 40.13921 | 46.12949 | 26864 ft | 399 kts | 266° |
| 2026-04-25 15:36 | 40.13709 | 46.05753 | 25695 ft | 393 kts | 266° |
| 2026-04-25 15:36 | 40.13602 | 46.02200 | 25131 ft | 390 kts | 267° |
| 2026-04-25 15:36 | 40.13495 | 45.98671 | 24553 ft | 387 kts | 266° |
| 2026-04-25 15:37 | 40.13385 | 45.95170 | 23973 ft | 383 kts | 267° |
| 2026-04-25 15:37 | 40.13346 | 45.91698 | 23448 ft | 381 kts | 269° |
| 2026-04-25 15:37 | 40.13360 | 45.88245 | 22901 ft | 379 kts | 270° |
| 2026-04-25 15:37 | 40.13384 | 45.84807 | 22356 ft | 378 kts | 270° |
| 2026-04-25 15:38 | 40.13401 | 45.81383 | 21826 ft | 376 kts | 270° |
| 2026-04-25 15:38 | 40.13411 | 45.78014 | 21293 ft | 374 kts | 270° |
| 2026-04-25 15:38 | 40.13416 | 45.74576 | 20756 ft | 373 kts | 270° |
| 2026-04-25 15:38 | 40.13418 | 45.71199 | 20227 ft | 371 kts | 270° |
| 2026-04-25 15:39 | 40.13416 | 45.67827 | 19703 ft | 370 kts | 270° |
| 2026-04-25 15:39 | 40.13413 | 45.64504 | 19182 ft | 368 kts | 270° |
| 2026-04-25 15:39 | 40.13409 | 45.61166 | 18669 ft | 367 kts | 270° |
| 2026-04-25 15:39 | 40.13405 | 45.57825 | 18146 ft | 366 kts | 270° |
| 2026-04-25 15:40 | 40.13400 | 45.54501 | 17626 ft | 365 kts | 271° |
| 2026-04-25 15:40 | 40.13398 | 45.53382 | 17456 ft | 365 kts | 270° |
| 2026-04-25 15:40 | 40.13383 | 45.47876 | 16593 ft | 363 kts | 270° |
| 2026-04-25 15:40 | 40.13373 | 45.44615 | 16079 ft | 362 kts | 270° |
| 2026-04-25 15:41 | 40.13364 | 45.41335 | 15557 ft | 360 kts | 270° |
| 2026-04-25 15:41 | 40.13351 | 45.38068 | 15059 ft | 359 kts | 270° |
| 2026-04-25 15:41 | 40.13338 | 45.34811 | 14542 ft | 357 kts | 270° |
| 2026-04-25 15:41 | 40.13325 | 45.31574 | 14041 ft | 355 kts | 270° |
| 2026-04-25 15:42 | 40.13170 | 45.28379 | 13526 ft | 350 kts | 259° |
| 2026-04-25 15:42 | 40.12405 | 45.25407 | 13058 ft | 350 kts | 246° |
| 2026-04-25 15:42 | 40.11162 | 45.22665 | 12897 ft | 339 kts | 234° |
| 2026-04-25 15:42 | 40.09635 | 45.20348 | 12992 ft | 340 kts | 231° |
| 2026-04-25 15:43 | 40.08017 | 45.18014 | 13067 ft | 352 kts | 230° |
| 2026-04-25 15:43 | 40.06368 | 45.15637 | 13078 ft | 354 kts | 230° |
| 2026-04-25 15:43 | 40.04728 | 45.13262 | 13078 ft | 346 kts | 230° |
| 2026-04-25 15:43 | 40.03161 | 45.10979 | 13070 ft | 330 kts | 231° |
| 2026-04-25 15:44 | 40.01668 | 45.08798 | 13062 ft | 314 kts | 231° |
| 2026-04-25 15:44 | 40.00252 | 45.06724 | 13028 ft | 298 kts | 231° |
| 2026-04-25 15:44 | 39.98926 | 45.04783 | 13067 ft | 286 kts | 231° |
| 2026-04-25 15:44 | 39.97607 | 45.02845 | 13078 ft | 285 kts | 231° |
| 2026-04-25 15:45 | 39.96378 | 45.00841 | 13064 ft | 280 kts | 244° |
| 2026-04-25 15:45 | 39.95847 | 44.98434 | 13085 ft | 280 kts | 267° |
| 2026-04-25 15:45 | 39.96017 | 44.95905 | 12947 ft | 282 kts | 283° |
| 2026-04-25 15:45 | 39.96214 | 44.95082 | 12817 ft | 283 kts | 290° |
| 2026-04-25 15:46 | 39.97791 | 44.91343 | 12243 ft | 283 kts | 297° |
| 2026-04-25 15:46 | 39.98769 | 44.89145 | 12017 ft | 277 kts | 297° |
| 2026-04-25 15:46 | 39.99726 | 44.87001 | 11795 ft | 269 kts | 301° |
| 2026-04-25 15:46 | 40.01086 | 44.85349 | 11193 ft | 274 kts | 329° |
| 2026-04-25 15:47 | 40.02808 | 44.84340 | 10622 ft | 275 kts | 332° |
| 2026-04-25 15:47 | 40.04560 | 44.83281 | 10130 ft | 279 kts | 332° |
| 2026-04-25 15:47 | 40.06305 | 44.82181 | 9871 ft | 276 kts | 332° |
| 2026-04-25 15:47 | 40.08021 | 44.81076 | 9574 ft | 274 kts | 332° |
| 2026-04-25 15:48 | 40.09730 | 44.79961 | 9267 ft | 274 kts | 332° |
| 2026-04-25 15:48 | 40.11441 | 44.78838 | 8819 ft | 277 kts | 332° |
| 2026-04-25 15:48 | 40.13114 | 44.77705 | 8411 ft | 263 kts | 326° |
| 2026-04-25 15:48 | 40.14003 | 44.76705 | 8171 ft | 249 kts | 305° |
| 2026-04-25 15:49 | 40.14703 | 44.74749 | 7913 ft | 230 kts | 283° |
| 2026-04-25 15:49 | 40.14896 | 44.72727 | 7626 ft | 221 kts | 271° |
| 2026-04-25 15:49 | 40.14899 | 44.70720 | 7442 ft | 221 kts | 269° |
| 2026-04-25 15:49 | 40.14884 | 44.68674 | 7155 ft | 230 kts | 269° |
| 2026-04-25 15:50 | 40.14865 | 44.66567 | 6865 ft | 231 kts | 269° |
| 2026-04-25 15:50 | 40.14850 | 44.64466 | 6558 ft | 230 kts | 269° |
| 2026-04-25 15:50 | 40.14837 | 44.62393 | 6275 ft | 227 kts | 269° |
| 2026-04-25 15:50 | 40.14826 | 44.60344 | 5998 ft | 224 kts | 269° |
| 2026-04-25 15:51 | 40.14816 | 44.58320 | 5676 ft | 223 kts | 269° |
| 2026-04-25 15:51 | 40.14808 | 44.56983 | 5460 ft | 223 kts | 269° |
| 2026-04-25 15:51 | 40.14796 | 44.54296 | 5005 ft | 223 kts | 269° |
| 2026-04-25 15:51 | 40.14787 | 44.52292 | 4648 ft | 216 kts | 269° |
| 2026-04-25 15:52 | 40.14779 | 44.50371 | 4310 ft | 206 kts | 269° |
| 2026-04-25 15:52 | 40.14772 | 44.48552 | 4030 ft | 192 kts | 269° |
| 2026-04-25 15:52 | 40.14764 | 44.46858 | 3735 ft | 179 kts | 269° |
| 2026-04-25 15:52 | 40.14757 | 44.45323 | 3471 ft | 158 kts | 269° |
| 2026-04-25 15:53 | 40.14750 | 44.43916 | 3218 ft | 157 kts | 269° |
| 2026-04-25 15:53 | 40.14737 | 44.42483 | 2991 ft | 158 kts | 268° |
| 2026-04-25 15:53 | 40.14732 | 44.41063 | 2845 ft | 150 kts | 269° |
| 2026-04-25 15:53 | 40.14728 | 44.39872 | 2843 ft | 106 kts | 270° |
| 2026-04-25 15:54 | 40.14724 | 44.39152 | 2841 ft | 53 kts | 270° |
| 2026-04-25 15:54 | 40.14723 | 44.38876 | 2844 ft | 21 kts | 269° |
| 2026-04-25 15:54 | 40.14721 | 44.38684 | 2846 ft | 21 kts | 269° |
| 2026-04-25 15:54 | 40.14721 | 44.38492 | 2847 ft | 21 kts | 270° |
| 2026-04-25 15:55 | 40.14721 | 44.38321 | 2845 ft | 12 kts | 271° |
| 2026-04-25 15:55 | 40.14775 | 44.38252 | 2843 ft | 12 kts | 349° |
| 2026-04-25 15:55 | 40.14851 | 44.38283 | 2844 ft | 12 kts | 29° |
| 2026-04-25 15:55 | 40.14922 | 44.38335 | 2841 ft | 12 kts | 29° |
| 2026-04-25 15:56 | 40.14969 | 44.38412 | 2842 ft | 12 kts | 82° |
| 2026-04-25 15:56 | 40.14971 | 44.38518 | 2842 ft | 12 kts | 89° |
| 2026-04-25 15:56 | 40.14971 | 44.38625 | 2844 ft | 12 kts | 91° |
| 2026-04-25 15:56 | 40.14970 | 44.38731 | 2842 ft | 12 kts | 91° |
| 2026-04-25 15:57 | 40.14971 | 44.38837 | 2844 ft | 12 kts | 89° |
| 2026-04-25 15:57 | 40.14973 | 44.38943 | 2844 ft | 12 kts | 89° |
| 2026-04-25 15:57 | 40.14973 | 44.39054 | 2843 ft | 15 kts | 91° |
| 2026-04-25 15:57 | 40.14974 | 44.39210 | 2842 ft | 17 kts | 89° |
| 2026-04-25 15:58 | 40.14974 | 44.39368 | 2841 ft | 17 kts | 89° |
| 2026-04-25 15:58 | 40.14976 | 44.39525 | 2843 ft | 17 kts | 89° |
| 2026-04-25 15:58 | 40.14977 | 44.39683 | 2842 ft | 17 kts | 89° |
| 2026-04-25 15:58 | 40.14983 | 44.39831 | 2846 ft | 15 kts | 70° |
| 2026-04-25 15:59 | 40.15056 | 44.39870 | 2842 ft | 9 kts | 355° |
| 2026-04-25 15:59 | 40.15066 | 44.39869 | 2846 ft | 0 kts | 357° |